sensor_id;sensor_type;location;lat;lon;timestamp;P1;durP1;ratioP1;P2;durP2;ratioP2
47804;SDS011;33568;45.286;9.900;2022-08-27T00:00:30;4.18;;;3.42;;
47804;SDS011;33568;45.286;9.900;2022-08-27T00:02:57;5.35;;;4.07;;
47804;SDS011;33568;45.286;9.900;2022-08-27T00:05:24;5.78;;;4.03;;
47804;SDS011;33568;45.286;9.900;2022-08-27T00:07:50;12.90;;;6.22;;
47804;SDS011;33568;45.286;9.900;2022-08-27T00:10:20;5.68;;;3.72;;
47804;SDS011;33568;45.286;9.900;2022-08-27T00:12:49;4.53;;;3.65;;
47804;SDS011;33568;45.286;9.900;2022-08-27T00:15:16;6.05;;;3.90;;
47804;SDS011;33568;45.286;9.900;2022-08-27T00:17:43;7.10;;;4.30;;
47804;SDS011;33568;45.286;9.900;2022-08-27T00:20:11;6.25;;;3.88;;
47804;SDS011;33568;45.286;9.900;2022-08-27T00:22:39;6.82;;;4.07;;
47804;SDS011;33568;45.286;9.900;2022-08-27T00:25:07;8.25;;;4.72;;
47804;SDS011;33568;45.286;9.900;2022-08-27T00:27:34;7.07;;;4.22;;
47804;SDS011;33568;45.286;9.900;2022-08-27T00:30:01;5.60;;;4.35;;
47804;SDS011;33568;45.286;9.900;2022-08-27T00:32:29;7.72;;;5.15;;
47804;SDS011;33568;45.286;9.900;2022-08-27T00:34:56;7.63;;;3.85;;
47804;SDS011;33568;45.286;9.900;2022-08-27T00:37:23;13.30;;;7.38;;
47804;SDS011;33568;45.286;9.900;2022-08-27T00:39:50;4.78;;;4.15;;
47804;SDS011;33568;45.286;9.900;2022-08-27T00:42:18;8.65;;;5.25;;
47804;SDS011;33568;45.286;9.900;2022-08-27T00:44:44;7.63;;;5.28;;
47804;SDS011;33568;45.286;9.900;2022-08-27T00:47:12;7.30;;;6.40;;
47804;SDS011;33568;45.286;9.900;2022-08-27T00:49:47;10.32;;;7.60;;
47804;SDS011;33568;45.286;9.900;2022-08-27T00:52:21;10.75;;;7.30;;
47804;SDS011;33568;45.286;9.900;2022-08-27T00:54:56;7.05;;;6.00;;
47804;SDS011;33568;45.286;9.900;2022-08-27T00:57:26;7.93;;;4.90;;
47804;SDS011;33568;45.286;9.900;2022-08-27T00:59:53;6.43;;;4.75;;
47804;SDS011;33568;45.286;9.900;2022-08-27T01:02:20;8.85;;;4.80;;
47804;SDS011;33568;45.286;9.900;2022-08-27T01:04:48;7.00;;;4.82;;
47804;SDS011;33568;45.286;9.900;2022-08-27T01:07:23;5.68;;;4.95;;
47804;SDS011;33568;45.286;9.900;2022-08-27T01:09:51;13.98;;;9.52;;
47804;SDS011;33568;45.286;9.900;2022-08-27T01:12:21;10.57;;;5.03;;
47804;SDS011;33568;45.286;9.900;2022-08-27T01:14:48;6.65;;;5.13;;
47804;SDS011;33568;45.286;9.900;2022-08-27T01:17:14;10.10;;;6.30;;
47804;SDS011;33568;45.286;9.900;2022-08-27T01:19:43;7.40;;;4.88;;
47804;SDS011;33568;45.286;9.900;2022-08-27T01:22:16;8.73;;;4.95;;
47804;SDS011;33568;45.286;9.900;2022-08-27T01:25:22;6.20;;;4.90;;
47804;SDS011;33568;45.286;9.900;2022-08-27T01:27:50;9.07;;;5.45;;
47804;SDS011;33568;45.286;9.900;2022-08-27T01:30:18;6.03;;;4.85;;
47804;SDS011;33568;45.286;9.900;2022-08-27T01:32:46;8.68;;;4.88;;
47804;SDS011;33568;45.286;9.900;2022-08-27T01:35:14;9.38;;;4.85;;
47804;SDS011;33568;45.286;9.900;2022-08-27T01:37:42;6.93;;;4.90;;
47804;SDS011;33568;45.286;9.900;2022-08-27T01:40:12;6.40;;;4.70;;
47804;SDS011;33568;45.286;9.900;2022-08-27T01:42:39;5.43;;;4.82;;
47804;SDS011;33568;45.286;9.900;2022-08-27T01:45:11;6.30;;;5.07;;
47804;SDS011;33568;45.286;9.900;2022-08-27T01:47:40;7.00;;;5.13;;
47804;SDS011;33568;45.286;9.900;2022-08-27T01:50:08;8.93;;;4.50;;
47804;SDS011;33568;45.286;9.900;2022-08-27T01:52:40;8.55;;;5.00;;
47804;SDS011;33568;45.286;9.900;2022-08-27T01:55:07;6.05;;;5.03;;
47804;SDS011;33568;45.286;9.900;2022-08-27T01:57:35;9.73;;;5.10;;
47804;SDS011;33568;45.286;9.900;2022-08-27T02:00:06;8.70;;;4.88;;
47804;SDS011;33568;45.286;9.900;2022-08-27T02:02:38;9.37;;;4.67;;
47804;SDS011;33568;45.286;9.900;2022-08-27T02:05:05;8.65;;;5.40;;
47804;SDS011;33568;45.286;9.900;2022-08-27T02:07:32;6.70;;;5.38;;
47804;SDS011;33568;45.286;9.900;2022-08-27T02:09:58;7.03;;;5.43;;
47804;SDS011;33568;45.286;9.900;2022-08-27T02:12:24;7.10;;;5.10;;
47804;SDS011;33568;45.286;9.900;2022-08-27T02:14:51;6.28;;;4.50;;
47804;SDS011;33568;45.286;9.900;2022-08-27T02:17:17;8.25;;;5.00;;
47804;SDS011;33568;45.286;9.900;2022-08-27T02:19:44;5.35;;;4.80;;
47804;SDS011;33568;45.286;9.900;2022-08-27T02:22:10;5.50;;;4.85;;
47804;SDS011;33568;45.286;9.900;2022-08-27T02:24:37;7.72;;;4.78;;
47804;SDS011;33568;45.286;9.900;2022-08-27T02:27:05;6.78;;;5.30;;
47804;SDS011;33568;45.286;9.900;2022-08-27T02:29:31;8.18;;;5.43;;
47804;SDS011;33568;45.286;9.900;2022-08-27T02:31:59;8.80;;;4.70;;
47804;SDS011;33568;45.286;9.900;2022-08-27T02:34:27;7.18;;;5.00;;
47804;SDS011;33568;45.286;9.900;2022-08-27T02:36:54;5.68;;;4.55;;
47804;SDS011;33568;45.286;9.900;2022-08-27T02:39:20;8.60;;;4.30;;
47804;SDS011;33568;45.286;9.900;2022-08-27T02:41:48;7.68;;;4.43;;
47804;SDS011;33568;45.286;9.900;2022-08-27T02:44:15;10.73;;;5.10;;
47804;SDS011;33568;45.286;9.900;2022-08-27T02:46:42;4.57;;;3.95;;
47804;SDS011;33568;45.286;9.900;2022-08-27T02:49:08;6.18;;;4.32;;
47804;SDS011;33568;45.286;9.900;2022-08-27T02:51:37;9.43;;;5.47;;
47804;SDS011;33568;45.286;9.900;2022-08-27T02:54:03;5.15;;;3.90;;
47804;SDS011;33568;45.286;9.900;2022-08-27T02:56:29;5.43;;;4.47;;
47804;SDS011;33568;45.286;9.900;2022-08-27T02:58:56;6.13;;;4.60;;
47804;SDS011;33568;45.286;9.900;2022-08-27T03:01:24;7.20;;;3.85;;
47804;SDS011;33568;45.286;9.900;2022-08-27T03:03:51;6.53;;;4.38;;
47804;SDS011;33568;45.286;9.900;2022-08-27T03:06:17;7.28;;;3.88;;
47804;SDS011;33568;45.286;9.900;2022-08-27T03:08:44;4.78;;;3.25;;
47804;SDS011;33568;45.286;9.900;2022-08-27T03:11:10;4.88;;;4.10;;
47804;SDS011;33568;45.286;9.900;2022-08-27T03:13:37;4.57;;;3.75;;
47804;SDS011;33568;45.286;9.900;2022-08-27T03:16:05;5.43;;;3.70;;
47804;SDS011;33568;45.286;9.900;2022-08-27T03:18:32;6.43;;;4.20;;
47804;SDS011;33568;45.286;9.900;2022-08-27T03:20:59;5.55;;;3.80;;
47804;SDS011;33568;45.286;9.900;2022-08-27T03:23:27;7.50;;;3.97;;
47804;SDS011;33568;45.286;9.900;2022-08-27T03:26:02;5.70;;;3.85;;
47804;SDS011;33568;45.286;9.900;2022-08-27T03:28:31;8.95;;;4.85;;
47804;SDS011;33568;45.286;9.900;2022-08-27T03:31:00;7.93;;;4.07;;
47804;SDS011;33568;45.286;9.900;2022-08-27T03:33:29;6.90;;;4.18;;
47804;SDS011;33568;45.286;9.900;2022-08-27T03:36:03;7.57;;;3.85;;
47804;SDS011;33568;45.286;9.900;2022-08-27T03:38:30;5.47;;;4.32;;
47804;SDS011;33568;45.286;9.900;2022-08-27T03:40:58;5.82;;;3.70;;
47804;SDS011;33568;45.286;9.900;2022-08-27T03:43:25;8.88;;;3.97;;
47804;SDS011;33568;45.286;9.900;2022-08-27T03:45:52;5.05;;;3.83;;
47804;SDS011;33568;45.286;9.900;2022-08-27T03:48:18;6.97;;;4.03;;
47804;SDS011;33568;45.286;9.900;2022-08-27T03:50:45;5.22;;;3.60;;
47804;SDS011;33568;45.286;9.900;2022-08-27T03:53:14;7.45;;;3.90;;
47804;SDS011;33568;45.286;9.900;2022-08-27T03:55:41;10.73;;;4.00;;
47804;SDS011;33568;45.286;9.900;2022-08-27T03:58:09;5.05;;;4.20;;
47804;SDS011;33568;45.286;9.900;2022-08-27T04:00:36;5.38;;;3.70;;
47804;SDS011;33568;45.286;9.900;2022-08-27T04:03:03;5.40;;;3.83;;
47804;SDS011;33568;45.286;9.900;2022-08-27T04:05:31;5.43;;;3.85;;
47804;SDS011;33568;45.286;9.900;2022-08-27T04:07:58;8.05;;;3.75;;
47804;SDS011;33568;45.286;9.900;2022-08-27T04:10:25;8.25;;;3.92;;
47804;SDS011;33568;45.286;9.900;2022-08-27T04:12:52;8.00;;;4.20;;
47804;SDS011;33568;45.286;9.900;2022-08-27T04:15:19;11.85;;;3.70;;
47804;SDS011;33568;45.286;9.900;2022-08-27T04:17:45;9.35;;;3.78;;
47804;SDS011;33568;45.286;9.900;2022-08-27T04:20:11;6.93;;;3.95;;
47804;SDS011;33568;45.286;9.900;2022-08-27T04:22:38;7.13;;;3.67;;
47804;SDS011;33568;45.286;9.900;2022-08-27T04:25:05;5.47;;;3.88;;
47804;SDS011;33568;45.286;9.900;2022-08-27T04:27:32;7.60;;;4.30;;
47804;SDS011;33568;45.286;9.900;2022-08-27T04:29:58;7.35;;;4.00;;
47804;SDS011;33568;45.286;9.900;2022-08-27T04:32:27;11.85;;;4.18;;
47804;SDS011;33568;45.286;9.900;2022-08-27T04:34:54;10.38;;;4.00;;
47804;SDS011;33568;45.286;9.900;2022-08-27T04:37:22;7.93;;;4.78;;
47804;SDS011;33568;45.286;9.900;2022-08-27T04:39:50;6.15;;;4.00;;
47804;SDS011;33568;45.286;9.900;2022-08-27T04:42:18;8.98;;;4.13;;
47804;SDS011;33568;45.286;9.900;2022-08-27T04:44:45;12.77;;;4.20;;
47804;SDS011;33568;45.286;9.900;2022-08-27T04:47:12;9.77;;;4.30;;
47804;SDS011;33568;45.286;9.900;2022-08-27T04:49:39;9.60;;;4.28;;
47804;SDS011;33568;45.286;9.900;2022-08-27T04:52:06;12.23;;;4.63;;
47804;SDS011;33568;45.286;9.900;2022-08-27T04:54:32;14.13;;;10.45;;
47804;SDS011;33568;45.286;9.900;2022-08-27T04:57:00;9.63;;;8.60;;
47804;SDS011;33568;45.286;9.900;2022-08-27T04:59:28;10.10;;;8.60;;
47804;SDS011;33568;45.286;9.900;2022-08-27T05:01:56;18.33;;;10.63;;
47804;SDS011;33568;45.286;9.900;2022-08-27T05:04:22;14.52;;;9.38;;
47804;SDS011;33568;45.286;9.900;2022-08-27T05:06:49;20.05;;;10.52;;
47804;SDS011;33568;45.286;9.900;2022-08-27T05:09:16;13.05;;;9.98;;
47804;SDS011;33568;45.286;9.900;2022-08-27T05:11:43;12.13;;;9.25;;
47804;SDS011;33568;45.286;9.900;2022-08-27T05:14:10;12.98;;;10.48;;
47804;SDS011;33568;45.286;9.900;2022-08-27T05:16:41;12.43;;;9.10;;
47804;SDS011;33568;45.286;9.900;2022-08-27T05:19:08;12.30;;;9.10;;
47804;SDS011;33568;45.286;9.900;2022-08-27T05:21:42;13.85;;;9.43;;
47804;SDS011;33568;45.286;9.900;2022-08-27T05:24:11;10.27;;;8.38;;
47804;SDS011;33568;45.286;9.900;2022-08-27T05:26:37;14.63;;;9.88;;
47804;SDS011;33568;45.286;9.900;2022-08-27T05:29:04;13.65;;;9.70;;
47804;SDS011;33568;45.286;9.900;2022-08-27T05:31:32;16.17;;;9.43;;
47804;SDS011;33568;45.286;9.900;2022-08-27T05:34:01;12.20;;;8.95;;
47804;SDS011;33568;45.286;9.900;2022-08-27T05:36:29;14.65;;;9.50;;
47804;SDS011;33568;45.286;9.900;2022-08-27T05:38:58;24.05;;;9.93;;
47804;SDS011;33568;45.286;9.900;2022-08-27T05:41:27;17.73;;;9.60;;
47804;SDS011;33568;45.286;9.900;2022-08-27T05:43:56;24.17;;;10.25;;
47804;SDS011;33568;45.286;9.900;2022-08-27T05:46:27;21.88;;;10.50;;
47804;SDS011;33568;45.286;9.900;2022-08-27T05:48:57;23.20;;;9.90;;
47804;SDS011;33568;45.286;9.900;2022-08-27T05:51:27;16.35;;;9.88;;
47804;SDS011;33568;45.286;9.900;2022-08-27T05:53:56;23.05;;;9.18;;
47804;SDS011;33568;45.286;9.900;2022-08-27T05:56:25;26.77;;;9.60;;
47804;SDS011;33568;45.286;9.900;2022-08-27T05:58:53;32.90;;;12.23;;
47804;SDS011;33568;45.286;9.900;2022-08-27T06:01:41;22.25;;;9.88;;
47804;SDS011;33568;45.286;9.900;2022-08-27T06:04:11;24.60;;;10.07;;
47804;SDS011;33568;45.286;9.900;2022-08-27T06:06:39;19.52;;;11.00;;
47804;SDS011;33568;45.286;9.900;2022-08-27T06:09:08;19.85;;;10.55;;
47804;SDS011;33568;45.286;9.900;2022-08-27T06:11:38;21.23;;;9.77;;
47804;SDS011;33568;45.286;9.900;2022-08-27T06:14:05;15.45;;;10.48;;
47804;SDS011;33568;45.286;9.900;2022-08-27T06:16:33;28.65;;;10.25;;
47804;SDS011;33568;45.286;9.900;2022-08-27T06:19:02;17.73;;;9.68;;
47804;SDS011;33568;45.286;9.900;2022-08-27T06:21:29;23.08;;;10.35;;
47804;SDS011;33568;45.286;9.900;2022-08-27T06:23:55;24.17;;;11.10;;
47804;SDS011;33568;45.286;9.900;2022-08-27T06:26:22;33.13;;;12.15;;
47804;SDS011;33568;45.286;9.900;2022-08-27T06:28:50;22.65;;;11.20;;
47804;SDS011;33568;45.286;9.900;2022-08-27T06:31:26;19.10;;;9.32;;
47804;SDS011;33568;45.286;9.900;2022-08-27T06:33:56;17.60;;;9.98;;
47804;SDS011;33568;45.286;9.900;2022-08-27T06:36:25;14.60;;;10.07;;
47804;SDS011;33568;45.286;9.900;2022-08-27T06:38:52;20.70;;;10.90;;
47804;SDS011;33568;45.286;9.900;2022-08-27T06:41:20;15.43;;;11.40;;
47804;SDS011;33568;45.286;9.900;2022-08-27T06:43:49;16.00;;;11.23;;
47804;SDS011;33568;45.286;9.900;2022-08-27T06:46:17;16.33;;;10.63;;
47804;SDS011;33568;45.286;9.900;2022-08-27T06:48:51;16.42;;;11.45;;
47804;SDS011;33568;45.286;9.900;2022-08-27T06:51:21;27.55;;;14.52;;
47804;SDS011;33568;45.286;9.900;2022-08-27T06:53:52;18.63;;;12.15;;
47804;SDS011;33568;45.286;9.900;2022-08-27T06:56:20;18.35;;;11.40;;
47804;SDS011;33568;45.286;9.900;2022-08-27T06:58:55;22.38;;;12.25;;
47804;SDS011;33568;45.286;9.900;2022-08-27T07:01:24;14.30;;;10.40;;
47804;SDS011;33568;45.286;9.900;2022-08-27T07:03:54;17.30;;;12.07;;
47804;SDS011;33568;45.286;9.900;2022-08-27T07:06:23;16.10;;;10.70;;
47804;SDS011;33568;45.286;9.900;2022-08-27T07:08:53;16.63;;;11.45;;
47804;SDS011;33568;45.286;9.900;2022-08-27T07:11:21;21.20;;;13.70;;
47804;SDS011;33568;45.286;9.900;2022-08-27T07:13:50;18.42;;;11.93;;
47804;SDS011;33568;45.286;9.900;2022-08-27T07:16:18;20.27;;;10.38;;
47804;SDS011;33568;45.286;9.900;2022-08-27T07:18:50;13.30;;;6.65;;
47804;SDS011;33568;45.286;9.900;2022-08-27T07:21:20;13.98;;;6.20;;
47804;SDS011;33568;45.286;9.900;2022-08-27T07:23:47;15.48;;;5.85;;
47804;SDS011;33568;45.286;9.900;2022-08-27T07:26:16;13.05;;;5.00;;
47804;SDS011;33568;45.286;9.900;2022-08-27T07:28:44;16.00;;;5.50;;
47804;SDS011;33568;45.286;9.900;2022-08-27T07:31:12;17.45;;;5.18;;
47804;SDS011;33568;45.286;9.900;2022-08-27T07:33:42;16.38;;;4.75;;
47804;SDS011;33568;45.286;9.900;2022-08-27T07:36:09;19.58;;;5.43;;
47804;SDS011;33568;45.286;9.900;2022-08-27T07:38:35;20.45;;;5.03;;
47804;SDS011;33568;45.286;9.900;2022-08-27T07:41:05;35.17;;;5.20;;
47804;SDS011;33568;45.286;9.900;2022-08-27T07:43:36;14.02;;;4.72;;
47804;SDS011;33568;45.286;9.900;2022-08-27T07:46:21;10.15;;;4.53;;
47804;SDS011;33568;45.286;9.900;2022-08-27T07:48:49;15.05;;;5.20;;
47804;SDS011;33568;45.286;9.900;2022-08-27T07:51:17;24.63;;;4.78;;
47804;SDS011;33568;45.286;9.900;2022-08-27T07:53:45;22.30;;;7.43;;
47804;SDS011;33568;45.286;9.900;2022-08-27T07:56:12;33.33;;;10.98;;
47804;SDS011;33568;45.286;9.900;2022-08-27T07:58:39;39.25;;;11.27;;
47804;SDS011;33568;45.286;9.900;2022-08-27T08:01:06;24.77;;;9.70;;
47804;SDS011;33568;45.286;9.900;2022-08-27T08:03:33;55.08;;;12.95;;
47804;SDS011;33568;45.286;9.900;2022-08-27T08:06:03;35.17;;;11.52;;
47804;SDS011;33568;45.286;9.900;2022-08-27T08:08:31;31.67;;;10.43;;
47804;SDS011;33568;45.286;9.900;2022-08-27T08:10:59;21.05;;;7.60;;
47804;SDS011;33568;45.286;9.900;2022-08-27T08:13:28;35.67;;;7.30;;
47804;SDS011;33568;45.286;9.900;2022-08-27T08:15:56;19.63;;;6.97;;
47804;SDS011;33568;45.286;9.900;2022-08-27T08:18:23;18.85;;;6.78;;
47804;SDS011;33568;45.286;9.900;2022-08-27T08:20:50;17.90;;;7.07;;
47804;SDS011;33568;45.286;9.900;2022-08-27T08:23:17;14.98;;;6.57;;
47804;SDS011;33568;45.286;9.900;2022-08-27T08:25:45;10.95;;;5.70;;
47804;SDS011;33568;45.286;9.900;2022-08-27T08:28:11;19.40;;;6.13;;
47804;SDS011;33568;45.286;9.900;2022-08-27T08:30:38;10.63;;;4.60;;
47804;SDS011;33568;45.286;9.900;2022-08-27T08:33:07;12.05;;;5.28;;
47804;SDS011;33568;45.286;9.900;2022-08-27T08:35:38;9.15;;;5.45;;
47804;SDS011;33568;45.286;9.900;2022-08-27T08:38:06;9.60;;;4.85;;
47804;SDS011;33568;45.286;9.900;2022-08-27T08:40:35;12.95;;;4.15;;
47804;SDS011;33568;45.286;9.900;2022-08-27T08:43:12;13.18;;;3.70;;
47804;SDS011;33568;45.286;9.900;2022-08-27T08:45:54;6.03;;;3.10;;
47804;SDS011;33568;45.286;9.900;2022-08-27T08:48:23;14.10;;;3.33;;
47804;SDS011;33568;45.286;9.900;2022-08-27T08:50:56;5.63;;;2.70;;
47804;SDS011;33568;45.286;9.900;2022-08-27T08:56:22;8.52;;;2.97;;
47804;SDS011;33568;45.286;9.900;2022-08-27T08:58:58;5.07;;;2.35;;
47804;SDS011;33568;45.286;9.900;2022-08-27T09:01:30;5.40;;;2.13;;
47804;SDS011;33568;45.286;9.900;2022-08-27T09:03:57;7.15;;;2.65;;
47804;SDS011;33568;45.286;9.900;2022-08-27T09:06:41;6.55;;;2.33;;
47804;SDS011;33568;45.286;9.900;2022-08-27T09:09:21;7.68;;;2.13;;
47804;SDS011;33568;45.286;9.900;2022-08-27T09:11:58;3.40;;;2.35;;
47804;SDS011;33568;45.286;9.900;2022-08-27T09:17:09;6.03;;;1.90;;
47804;SDS011;33568;45.286;9.900;2022-08-27T09:19:35;7.72;;;2.25;;
47804;SDS011;33568;45.286;9.900;2022-08-27T09:25:17;5.30;;;1.60;;
47804;SDS011;33568;45.286;9.900;2022-08-27T09:27:49;7.55;;;2.30;;
47804;SDS011;33568;45.286;9.900;2022-08-27T09:30:19;2.63;;;1.70;;
47804;SDS011;33568;45.286;9.900;2022-08-27T09:32:57;3.92;;;1.65;;
47804;SDS011;33568;45.286;9.900;2022-08-27T09:35:30;3.90;;;1.77;;
47804;SDS011;33568;45.286;9.900;2022-08-27T09:38:03;5.57;;;2.00;;
47804;SDS011;33568;45.286;9.900;2022-08-27T09:40:31;6.70;;;1.98;;
47804;SDS011;33568;45.286;9.900;2022-08-27T09:43:05;3.80;;;1.83;;
47804;SDS011;33568;45.286;9.900;2022-08-27T09:45:48;6.65;;;2.17;;
47804;SDS011;33568;45.286;9.900;2022-08-27T09:48:18;7.80;;;2.13;;
47804;SDS011;33568;45.286;9.900;2022-08-27T09:51:01;4.53;;;1.98;;
47804;SDS011;33568;45.286;9.900;2022-08-27T09:53:42;3.33;;;1.67;;
47804;SDS011;33568;45.286;9.900;2022-08-27T09:56:40;6.75;;;1.65;;
47804;SDS011;33568;45.286;9.900;2022-08-27T10:01:52;2.58;;;2.28;;
47804;SDS011;33568;45.286;9.900;2022-08-27T10:04:25;2.80;;;1.63;;
47804;SDS011;33568;45.286;9.900;2022-08-27T10:07:12;2.97;;;1.85;;
47804;SDS011;33568;45.286;9.900;2022-08-27T10:09:56;5.65;;;2.20;;
47804;SDS011;33568;45.286;9.900;2022-08-27T10:15:23;2.38;;;2.05;;
47804;SDS011;33568;45.286;9.900;2022-08-27T10:21:01;5.45;;;1.88;;
47804;SDS011;33568;45.286;9.900;2022-08-27T10:40:30;3.25;;;2.17;;
47804;SDS011;33568;45.286;9.900;2022-08-27T10:49:08;6.60;;;3.60;;
47804;SDS011;33568;45.286;9.900;2022-08-27T10:54:50;6.32;;;3.90;;
47804;SDS011;33568;45.286;9.900;2022-08-27T11:05:30;5.45;;;4.35;;
47804;SDS011;33568;45.286;9.900;2022-08-27T11:08:19;6.38;;;4.38;;
47804;SDS011;33568;45.286;9.900;2022-08-27T11:10:53;7.57;;;4.10;;
47804;SDS011;33568;45.286;9.900;2022-08-27T11:13:45;5.97;;;4.18;;
47804;SDS011;33568;45.286;9.900;2022-08-27T11:16:22;8.57;;;4.10;;
47804;SDS011;33568;45.286;9.900;2022-08-27T11:18:53;5.18;;;3.58;;
47804;SDS011;33568;45.286;9.900;2022-08-27T11:21:33;6.05;;;4.35;;
47804;SDS011;33568;45.286;9.900;2022-08-27T11:24:50;6.15;;;3.80;;
47804;SDS011;33568;45.286;9.900;2022-08-27T11:27:02;5.18;;;3.60;;
47804;SDS011;33568;45.286;9.900;2022-08-27T11:32:45;8.13;;;5.22;;
47804;SDS011;33568;45.286;9.900;2022-08-27T11:35:16;6.72;;;4.70;;
47804;SDS011;33568;45.286;9.900;2022-08-27T11:38:05;7.50;;;4.47;;
47804;SDS011;33568;45.286;9.900;2022-08-27T11:43:18;6.28;;;4.05;;
47804;SDS011;33568;45.286;9.900;2022-08-27T11:45:51;5.93;;;3.60;;
47804;SDS011;33568;45.286;9.900;2022-08-27T11:53:53;7.90;;;4.00;;
47804;SDS011;33568;45.286;9.900;2022-08-27T12:05:18;4.47;;;3.40;;
47804;SDS011;33568;45.286;9.900;2022-08-27T12:07:48;4.72;;;3.80;;
47804;SDS011;33568;45.286;9.900;2022-08-27T12:10:28;6.88;;;4.07;;
47804;SDS011;33568;45.286;9.900;2022-08-27T12:13:08;4.20;;;3.65;;
47804;SDS011;33568;45.286;9.900;2022-08-27T12:18:35;4.22;;;3.83;;
47804;SDS011;33568;45.286;9.900;2022-08-27T12:21:13;5.18;;;4.35;;
47804;SDS011;33568;45.286;9.900;2022-08-27T12:23:48;4.70;;;4.20;;
47804;SDS011;33568;45.286;9.900;2022-08-27T12:26:35;4.65;;;4.10;;
47804;SDS011;33568;45.286;9.900;2022-08-27T12:31:59;10.35;;;4.82;;
47804;SDS011;33568;45.286;9.900;2022-08-27T12:34:29;7.28;;;4.20;;
47804;SDS011;33568;45.286;9.900;2022-08-27T12:37:06;6.93;;;4.60;;
47804;SDS011;33568;45.286;9.900;2022-08-27T12:39:34;5.50;;;4.35;;
47804;SDS011;33568;45.286;9.900;2022-08-27T12:42:10;5.95;;;4.30;;
47804;SDS011;33568;45.286;9.900;2022-08-27T12:44:45;5.22;;;3.58;;
47804;SDS011;33568;45.286;9.900;2022-08-27T12:47:11;5.57;;;4.40;;
47804;SDS011;33568;45.286;9.900;2022-08-27T12:49:43;4.72;;;3.70;;
47804;SDS011;33568;45.286;9.900;2022-08-27T12:55:39;5.55;;;4.05;;
47804;SDS011;33568;45.286;9.900;2022-08-27T13:01:10;4.07;;;3.67;;
47804;SDS011;33568;45.286;9.900;2022-08-27T13:03:50;5.00;;;3.97;;
47804;SDS011;33568;45.286;9.900;2022-08-27T13:08:59;4.68;;;3.88;;
47804;SDS011;33568;45.286;9.900;2022-08-27T13:11:29;4.13;;;3.45;;
47804;SDS011;33568;45.286;9.900;2022-08-27T13:14:07;3.53;;;3.22;;
47804;SDS011;33568;45.286;9.900;2022-08-27T13:16:37;4.15;;;3.75;;
47804;SDS011;33568;45.286;9.900;2022-08-27T13:19:11;9.77;;;3.55;;
47804;SDS011;33568;45.286;9.900;2022-08-27T13:22:01;6.82;;;4.28;;
47804;SDS011;33568;45.286;9.900;2022-08-27T13:24:31;5.03;;;4.20;;
47804;SDS011;33568;45.286;9.900;2022-08-27T13:27:09;4.35;;;3.67;;
47804;SDS011;33568;45.286;9.900;2022-08-27T13:29:37;4.70;;;3.58;;
47804;SDS011;33568;45.286;9.900;2022-08-27T13:32:04;3.83;;;3.42;;
47804;SDS011;33568;45.286;9.900;2022-08-27T13:34:32;4.47;;;3.50;;
47804;SDS011;33568;45.286;9.900;2022-08-27T13:37:05;5.65;;;3.60;;
47804;SDS011;33568;45.286;9.900;2022-08-27T13:39:46;6.35;;;4.30;;
47804;SDS011;33568;45.286;9.900;2022-08-27T13:42:16;5.20;;;4.20;;
47804;SDS011;33568;45.286;9.900;2022-08-27T13:44:42;9.75;;;3.83;;
47804;SDS011;33568;45.286;9.900;2022-08-27T13:49:42;5.53;;;4.35;;
47804;SDS011;33568;45.286;9.900;2022-08-27T13:52:31;4.85;;;4.03;;
47804;SDS011;33568;45.286;9.900;2022-08-27T13:55:22;5.85;;;4.70;;
47804;SDS011;33568;45.286;9.900;2022-08-27T13:57:49;4.88;;;3.60;;
47804;SDS011;33568;45.286;9.900;2022-08-27T14:00:31;5.30;;;4.30;;
47804;SDS011;33568;45.286;9.900;2022-08-27T14:02:58;6.13;;;3.45;;
47804;SDS011;33568;45.286;9.900;2022-08-27T14:05:29;3.97;;;3.15;;
47804;SDS011;33568;45.286;9.900;2022-08-27T14:08:14;6.47;;;4.40;;
47804;SDS011;33568;45.286;9.900;2022-08-27T14:10:44;6.32;;;3.08;;
47804;SDS011;33568;45.286;9.900;2022-08-27T14:15:46;6.05;;;3.92;;
47804;SDS011;33568;45.286;9.900;2022-08-27T14:20:53;11.23;;;4.07;;
47804;SDS011;33568;45.286;9.900;2022-08-27T14:23:21;4.20;;;3.80;;
47804;SDS011;33568;45.286;9.900;2022-08-27T14:25:49;7.38;;;4.38;;
47804;SDS011;33568;45.286;9.900;2022-08-27T14:28:17;5.60;;;3.78;;
47804;SDS011;33568;45.286;9.900;2022-08-27T14:30:46;3.85;;;3.35;;
47804;SDS011;33568;45.286;9.900;2022-08-27T14:33:12;7.05;;;3.80;;
47804;SDS011;33568;45.286;9.900;2022-08-27T14:35:39;5.28;;;4.10;;
47804;SDS011;33568;45.286;9.900;2022-08-27T14:38:16;4.47;;;3.65;;
47804;SDS011;33568;45.286;9.900;2022-08-27T14:40:45;7.25;;;4.10;;
47804;SDS011;33568;45.286;9.900;2022-08-27T14:43:12;4.53;;;3.80;;
47804;SDS011;33568;45.286;9.900;2022-08-27T14:45:39;5.03;;;4.10;;
47804;SDS011;33568;45.286;9.900;2022-08-27T14:48:09;6.53;;;3.83;;
47804;SDS011;33568;45.286;9.900;2022-08-27T14:50:39;5.30;;;4.20;;
47804;SDS011;33568;45.286;9.900;2022-08-27T14:53:07;5.00;;;3.88;;
47804;SDS011;33568;45.286;9.900;2022-08-27T14:55:33;5.10;;;3.38;;
47804;SDS011;33568;45.286;9.900;2022-08-27T14:57:59;4.47;;;4.07;;
47804;SDS011;33568;45.286;9.900;2022-08-27T15:00:26;4.13;;;3.72;;
47804;SDS011;33568;45.286;9.900;2022-08-27T15:02:55;3.78;;;3.25;;
47804;SDS011;33568;45.286;9.900;2022-08-27T15:05:22;4.25;;;3.83;;
47804;SDS011;33568;45.286;9.900;2022-08-27T15:07:50;5.38;;;4.22;;
47804;SDS011;33568;45.286;9.900;2022-08-27T15:10:19;4.70;;;3.53;;
47804;SDS011;33568;45.286;9.900;2022-08-27T15:12:45;5.97;;;3.50;;
47804;SDS011;33568;45.286;9.900;2022-08-27T15:15:12;7.00;;;3.88;;
47804;SDS011;33568;45.286;9.900;2022-08-27T15:17:39;7.00;;;3.95;;
47804;SDS011;33568;45.286;9.900;2022-08-27T15:20:08;6.03;;;3.97;;
47804;SDS011;33568;45.286;9.900;2022-08-27T15:22:37;4.20;;;3.00;;
47804;SDS011;33568;45.286;9.900;2022-08-27T15:25:05;4.32;;;3.80;;
47804;SDS011;33568;45.286;9.900;2022-08-27T15:27:32;4.72;;;3.67;;
47804;SDS011;33568;45.286;9.900;2022-08-27T15:30:02;4.22;;;3.83;;
47804;SDS011;33568;45.286;9.900;2022-08-27T15:32:33;7.00;;;3.20;;
47804;SDS011;33568;45.286;9.900;2022-08-27T15:35:02;5.95;;;3.78;;
47804;SDS011;33568;45.286;9.900;2022-08-27T15:37:33;7.07;;;4.57;;
47804;SDS011;33568;45.286;9.900;2022-08-27T15:40:00;5.40;;;3.10;;
47804;SDS011;33568;45.286;9.900;2022-08-27T15:42:28;3.65;;;3.20;;
47804;SDS011;33568;45.286;9.900;2022-08-27T15:44:54;3.40;;;3.10;;
47804;SDS011;33568;45.286;9.900;2022-08-27T15:47:22;5.80;;;3.95;;
47804;SDS011;33568;45.286;9.900;2022-08-27T15:49:49;5.53;;;3.88;;
47804;SDS011;33568;45.286;9.900;2022-08-27T15:52:16;4.40;;;3.90;;
47804;SDS011;33568;45.286;9.900;2022-08-27T15:54:45;8.25;;;4.93;;
47804;SDS011;33568;45.286;9.900;2022-08-27T15:57:13;5.55;;;4.03;;
47804;SDS011;33568;45.286;9.900;2022-08-27T15:59:40;8.48;;;4.72;;
47804;SDS011;33568;45.286;9.900;2022-08-27T16:02:08;5.72;;;4.25;;
47804;SDS011;33568;45.286;9.900;2022-08-27T16:04:40;4.43;;;3.53;;
47804;SDS011;33568;45.286;9.900;2022-08-27T16:07:07;7.25;;;4.40;;
47804;SDS011;33568;45.286;9.900;2022-08-27T16:09:33;4.22;;;3.35;;
47804;SDS011;33568;45.286;9.900;2022-08-27T16:11:59;4.35;;;4.05;;
47804;SDS011;33568;45.286;9.900;2022-08-27T16:14:26;9.38;;;3.30;;
47804;SDS011;33568;45.286;9.900;2022-08-27T16:16:52;6.05;;;3.92;;
47804;SDS011;33568;45.286;9.900;2022-08-27T16:19:18;7.32;;;3.05;;
47804;SDS011;33568;45.286;9.900;2022-08-27T16:21:45;4.25;;;3.42;;
47804;SDS011;33568;45.286;9.900;2022-08-27T16:24:13;5.78;;;4.15;;
47804;SDS011;33568;45.286;9.900;2022-08-27T16:26:39;3.53;;;3.22;;
47804;SDS011;33568;45.286;9.900;2022-08-27T16:29:07;7.03;;;4.22;;
47804;SDS011;33568;45.286;9.900;2022-08-27T16:31:34;4.72;;;3.72;;
47804;SDS011;33568;45.286;9.900;2022-08-27T16:34:03;8.68;;;3.90;;